St Thomas, Virgin Islands
Current Conditions -  °F | °C
As of 10:00 AM on Monday 26 Jan 2015 (Local Time) from TUPJ Reporting Station
Rain Showers Rain Showers  
Wind Chill: 27°   Ceiling: Unl
Heat Index: 29°   Visibility: 6mi
Dew Point: 22°   Wind: 14mph
Humidity: 74%   Direction: 130°SE
Pressure: 30.06"   Gusts: NA
Location:  18.3436°N, 64.9322°W
Report Text: TUPJ 261400Z 13012KT 9999 VCSH SCT019 27/22 Q1018 RMK A3006
Loading
Personal Weather Stations






























Interactive Weather Map New forecast layout! Learn more

10-Day Weather Forecast

Advertisements
Track Severe Weather on mobile